Time;durP1;ratioP1;P1;durP2;ratioP2;P2;SDS_P1;SDS_P2;PMS_P1;PMS_P2;Temp;Humidity;BMP_temperature;BMP_pressure;BME280_temperature;BME280_humidity;BME280_pressure;Samples;Min_cycle;Max_cycle;Signal;HPM_P1;HPM_P2
2023/10/16 00:01:13;;;;;;;6.80;1.70;;;;;;;9.23;80.25;99894.17;108065;1253;73324;-71
2023/10/16 00:03:41;;;;;;;4.50;1.80;;;;;;;9.22;80.25;99897.64;108271;1253;62090;-72
2023/10/16 00:06:14;;;;;;;4.00;1.70;;;;;;;9.23;80.39;99896.30;108101;1253;60419;-74
2023/10/16 00:08:47;;;;;;;4.10;1.60;;;;;;;9.24;80.46;99898.45;108148;1254;73845;-71
2023/10/16 00:11:23;;;;;;;3.90;1.40;;;;;;;9.25;80.48;99896.90;108125;1253;72886;-73
2023/10/16 00:13:51;;;;;;;6.00;1.90;;;;;;;9.26;80.42;99898.92;108056;1253;71437;-72
2023/10/16 00:16:21;;;;;;;3.70;1.80;;;;;;;9.27;80.42;99896.09;108034;1253;61443;-71
2023/10/16 00:18:53;;;;;;;5.10;1.80;;;;;;;9.29;80.45;99890.23;108139;1253;59988;-71
2023/10/16 00:21:24;;;;;;;4.80;1.50;;;;;;;9.30;80.64;99885.70;108192;1254;73075;-71
2023/10/16 00:23:54;;;;;;;4.30;1.70;;;;;;;9.32;80.40;99889.40;108168;1253;73043;-72
2023/10/16 00:26:23;;;;;;;3.80;1.40;;;;;;;9.29;80.35;99886.56;108142;1253;72514;-70
2023/10/16 00:29:38;;;;;;;3.30;1.40;;;;;;;9.27;80.37;99887.30;108188;1256;61704;-70
2023/10/16 00:31:46;;;;;;;;;;;;;;;9.24;80.32;99885.02;108048;1253;60412;-71
2023/10/16 00:34:19;;;;;;;5.80;1.50;;;;;;;9.21;80.35;99885.16;108053;1253;74981;-70
2023/10/16 00:36:53;;;;;;;4.10;1.50;;;;;;;9.16;80.29;99883.98;108028;1253;70784;-71
2023/10/16 00:39:22;;;;;;;4.00;1.60;;;;;;;9.14;80.22;99880.25;108187;1254;71136;-71
2023/10/16 00:41:50;;;;;;;5.30;1.40;;;;;;;9.11;80.39;99877.22;108109;1253;60984;-71
2023/10/16 00:44:18;;;;;;;4.00;1.30;;;;;;;9.08;80.26;99872.51;108126;1253;60909;-72
2023/10/16 00:46:48;;;;;;;4.40;1.30;;;;;;;9.06;80.44;99874.01;108136;1253;72387;-72
2023/10/16 00:49:18;;;;;;;3.70;1.10;;;;;;;9.05;80.45;99870.95;108114;1253;72732;-71
2023/10/16 00:51:47;;;;;;;4.90;1.50;;;;;;;9.02;80.40;99865.52;108017;1253;71789;-69
2023/10/16 00:54:19;;;;;;;5.00;1.50;;;;;;;9.02;80.57;99862.59;107987;1253;61690;-70
2023/10/16 01:13:33;;;;;;;6.20;1.70;;;;;;;9.01;80.85;99858.06;104961;1291;600118;-75
2023/10/16 01:16:01;;;;;;;4.90;2.00;;;;;;;8.96;80.83;99868.70;107481;1267;60662;-76
2023/10/16 01:18:28;;;;;;;3.90;1.70;;;;;;;8.92;80.93;99862.41;107399;1266;59847;-74
2023/10/16 01:20:56;;;;;;;3.90;1.50;;;;;;;8.88;80.85;99870.55;107372;1266;72348;-77
2023/10/16 01:23:25;;;;;;;3.60;1.60;;;;;;;8.79;80.43;99874.09;107443;1266;72728;-76
2023/10/16 01:25:53;;;;;;;3.20;1.30;;;;;;;8.71;80.41;99865.55;107480;1266;72712;-74
2023/10/16 01:28:21;;;;;;;4.30;1.60;;;;;;;8.65;80.14;99859.67;107302;1266;233383;-74
2023/10/16 01:30:49;;;;;;;3.60;1.50;;;;;;;8.57;80.11;99861.66;107494;1266;60085;-74
2023/10/16 01:33:19;;;;;;;3.40;1.60;;;;;;;8.51;80.11;99863.27;107391;1265;72245;-74
2023/10/16 01:35:46;;;;;;;3.90;1.70;;;;;;;8.46;80.04;99867.30;107463;1263;71905;-74
2023/10/16 01:38:15;;;;;;;4.80;1.30;;;;;;;8.41;80.13;99863.61;107502;1264;72377;-74
2023/10/16 01:41:08;;;;;;;3.70;1.50;;;;;;;8.37;80.14;99861.55;107516;1263;61456;-75
2023/10/16 01:43:36;;;;;;;3.40;1.20;;;;;;;8.33;80.17;99862.00;107502;1263;60220;-74
2023/10/16 01:46:08;;;;;;;3.10;1.10;;;;;;;8.29;80.08;99861.30;107446;1263;73183;-75
2023/10/16 01:48:41;;;;;;;;;;;;;;;8.24;80.01;99854.82;107460;1263;72729;-74
2023/10/16 01:51:09;;;;;;;4.10;1.40;;;;;;;8.20;80.00;99856.02;107386;1263;72531;-74
2023/10/16 01:53:39;;;;;;;4.50;1.10;;;;;;;8.16;80.07;99860.80;107513;1265;62385;-74
2023/10/16 01:56:13;;;;;;;4.90;1.40;;;;;;;8.12;80.07;99854.77;107567;1263;60032;-73
2023/10/16 01:58:44;;;;;;;3.50;1.00;;;;;;;8.08;80.15;99855.48;107586;1262;73042;-73
2023/10/16 02:01:14;;;;;;;3.60;1.20;;;;;;;8.04;80.09;99858.45;107590;1262;73165;-75
2023/10/16 02:03:49;;;;;;;4.60;1.50;;;;;;;8.04;80.18;99861.58;107400;1263;72279;-75
2023/10/16 02:06:18;;;;;;;4.00;1.30;;;;;;;8.02;80.23;99867.20;107395;1262;60421;-74
2023/10/16 02:08:47;;;;;;;3.90;1.50;;;;;;;8.00;80.31;99865.12;107546;1262;59987;-74
2023/10/16 02:11:16;;;;;;;3.70;1.30;;;;;;;7.97;80.42;99873.24;107468;1262;75422;-74
2023/10/16 02:13:43;;;;;;;3.60;1.00;;;;;;;7.96;80.51;99873.51;107567;1262;71445;-73
2023/10/16 02:16:12;;;;;;;3.40;1.30;;;;;;;7.95;80.55;99870.92;107475;1262;71609;-74
2023/10/16 02:18:41;;;;;;;2.80;1.20;;;;;;;7.95;80.65;99868.54;107572;1261;61792;-74
2023/10/16 02:21:12;;;;;;;3.90;1.10;;;;;;;7.95;80.82;99861.41;107528;1262;59560;-74
2023/10/16 02:23:43;;;;;;;3.20;1.10;;;;;;;7.95;80.98;99859.98;107544;1262;70657;-74
2023/10/16 02:26:11;;;;;;;2.60;1.10;;;;;;;7.96;80.80;99852.02;107547;1262;72630;-74
2023/10/16 02:28:46;;;;;;;2.60;1.20;;;;;;;7.96;80.90;99846.69;107496;1266;72874;-74
2023/10/16 02:31:19;;;;;;;2.70;1.10;;;;;;;7.98;81.03;99837.40;107593;1263;60267;-75
2023/10/16 02:33:53;;;;;;;3.10;1.40;;;;;;;8.00;80.93;99833.27;107523;1262;59413;-76
2023/10/16 02:36:21;;;;;;;3.60;1.10;;;;;;;8.04;80.89;99829.66;107518;1261;72875;-74
2023/10/16 02:38:50;;;;;;;3.80;1.00;;;;;;;8.06;80.99;99833.03;107728;1262;71449;-76
2023/10/16 02:41:19;;;;;;;3.20;1.20;;;;;;;8.09;81.10;99826.34;107616;1261;71651;-75
2023/10/16 02:43:48;;;;;;;2.50;0.90;;;;;;;8.10;81.08;99825.34;107551;1268;60865;-75
2023/10/16 02:46:21;;;;;;;2.30;1.10;;;;;;;8.15;80.84;99825.84;107586;1262;59540;-74
2023/10/16 02:48:52;;;;;;;3.70;1.10;;;;;;;8.19;81.03;99823.98;107500;1263;72997;-74
2023/10/16 02:51:20;;;;;;;2.70;1.00;;;;;;;8.25;81.10;99824.35;107488;1262;72641;-74
2023/10/16 02:53:51;;;;;;;3.00;1.00;;;;;;;8.32;80.96;99827.67;107447;1262;70530;-75
2023/10/16 02:56:22;;;;;;;3.00;1.10;;;;;;;8.35;80.88;99827.00;107519;1262;61757;-75
2023/10/16 02:58:57;;;;;;;3.30;1.20;;;;;;;8.37;80.85;99827.65;107335;1260;60022;-74
2023/10/16 03:01:25;;;;;;;3.10;1.00;;;;;;;8.38;80.69;99824.63;107511;1262;71821;-75
2023/10/16 03:03:58;;;;;;;3.10;1.20;;;;;;;8.40;80.75;99827.10;107556;1263;72568;-76
2023/10/16 03:06:30;;;;;;;4.10;1.20;;;;;;;8.45;80.78;99829.36;107555;1261;71578;-75
2023/10/16 03:09:25;;;;;;;4.60;1.30;;;;;;;8.48;80.71;99832.55;107493;1263;61659;-76
2023/10/16 03:11:49;;;;;;;2.50;1.00;;;;;;;8.46;80.54;99839.42;107663;1262;59541;-75
2023/10/16 03:14:21;;;;;;;2.50;1.10;;;;;;;8.44;80.54;99836.59;107537;1261;73084;-76
2023/10/16 03:16:48;;;;;;;3.20;1.20;;;;;;;8.43;80.50;99837.59;107519;1261;72979;-76
2023/10/16 03:19:17;;;;;;;4.40;1.40;;;;;;;8.41;80.43;99831.35;107602;1262;72702;-75
2023/10/16 03:21:45;;;;;;;3.30;1.30;;;;;;;8.42;80.57;99825.56;107517;1263;61785;-75
2023/10/16 03:24:15;;;;;;;4.30;1.50;;;;;;;8.44;80.57;99824.45;107586;1261;59548;-76
2023/10/16 03:26:43;;;;;;;4.70;1.70;;;;;;;8.49;80.57;99822.71;107475;1261;71808;-75
2023/10/16 03:29:10;;;;;;;3.20;1.30;;;;;;;8.52;80.55;99818.88;107530;1261;72733;-75
2023/10/16 03:31:39;;;;;;;3.80;1.50;;;;;;;8.55;80.62;99814.80;107569;1260;71361;-74
2023/10/16 03:34:11;;;;;;;3.20;1.60;;;;;;;8.59;80.69;99812.27;107522;1265;60725;-74
2023/10/16 03:36:59;;;;;;;3.50;1.30;;;;;;;8.65;80.58;99811.48;107527;1260;59504;-75
2023/10/16 03:39:27;;;;;;;2.60;1.10;;;;;;;8.63;80.57;99821.02;107600;1263;73076;-74
2023/10/16 03:41:55;;;;;;;3.80;1.70;;;;;;;8.57;80.41;99829.55;107543;1261;71251;-74
2023/10/16 03:44:26;;;;;;;4.90;1.70;;;;;;;8.47;80.28;99829.41;107563;1265;72730;-74
2023/10/16 03:46:55;;;;;;;3.50;1.80;;;;;;;8.38;80.39;99827.71;107583;1263;61745;-75
2023/10/16 03:49:23;;;;;;;4.50;1.50;;;;;;;8.35;80.49;99828.90;107582;1261;59980;-75
2023/10/16 03:51:50;;;;;;;3.20;1.50;;;;;;;8.33;80.60;99832.41;107587;1263;71821;-75
2023/10/16 03:54:30;;;;;;;3.60;1.30;;;;;;;8.26;80.49;99834.79;107609;1261;72732;-75
2023/10/16 03:57:01;;;;;;;2.20;1.20;;;;;;;8.18;80.72;99838.67;107503;1266;71464;-75
2023/10/16 03:59:29;;;;;;;4.20;1.50;;;;;;;8.11;80.65;99834.86;107534;1266;60351;-74
2023/10/16 04:01:56;;;;;;;3.60;1.40;;;;;;;8.03;80.69;99838.98;107566;1260;60049;-75
2023/10/16 04:04:26;;;;;;;4.70;1.70;;;;;;;7.95;80.73;99832.22;107588;1261;73107;-75
2023/10/16 04:06:56;;;;;;;2.60;1.20;;;;;;;7.90;80.91;99833.69;107522;1262;70457;-75
2023/10/16 04:09:32;;;;;;;6.00;1.90;;;;;;;7.90;81.02;99825.97;108158;1260;72335;-75
2023/10/16 04:12:06;;;;;;;3.30;1.30;;;;;;;7.91;81.28;99825.08;107913;1256;60430;-76
2023/10/16 04:14:54;;;;;;;2.10;1.20;;;;;;;7.90;81.30;99822.94;107797;1255;59333;-76
2023/10/16 04:17:26;;;;;;;3.30;1.50;;;;;;;7.85;81.42;99823.86;108127;1257;73042;-77
2023/10/16 04:19:59;;;;;;;3.30;1.30;;;;;;;7.82;81.52;99829.58;107846;1256;72514;-76
2023/10/16 04:22:43;;;;;;;3.10;1.50;;;;;;;7.81;81.67;99834.59;107903;1257;73610;-76
2023/10/16 04:25:19;;;;;;;2.90;1.40;;;;;;;7.81;81.76;99835.06;107819;1262;60407;-75
2023/10/16 04:27:56;;;;;;;3.20;1.40;;;;;;;7.82;81.90;99837.40;107949;1261;59496;-76
2023/10/16 04:38:27;;;;;;;3.50;1.80;;;;;;;7.78;82.00;99833.82;108123;1256;61694;-76
2023/10/16 04:43:51;;;;;;;3.40;1.40;;;;;;;7.83;82.29;99827.36;108040;1257;73008;-76
2023/10/16 04:46:23;;;;;;;5.20;3.30;;;;;;;7.87;82.22;99831.43;107838;1257;71454;-76
2023/10/16 04:48:51;;;;;;;6.70;2.60;;;;;;;7.88;82.18;99825.54;107896;1257;72487;-77
2023/10/16 04:51:22;;;;;;;3.30;2.10;;;;;;;7.90;82.27;99832.36;107845;1261;60558;-78
2023/10/16 04:54:13;;;;;;;3.70;2.30;;;;;;;7.87;82.17;99833.23;108015;1257;59617;-75
2023/10/16 04:57:03;;;;;;;3.60;1.90;;;;;;;7.86;82.31;99837.69;107993;1256;73061;-77
2023/10/16 04:59:37;;;;;;;3.40;1.60;;;;;;;7.84;82.33;99835.88;107986;1260;72718;-77
2023/10/16 05:02:16;;;;;;;3.60;1.80;;;;;;;7.84;82.42;99827.42;107830;1257;71457;-75
2023/10/16 05:05:32;;;;;;;4.10;1.70;;;;;;;7.85;82.56;99826.14;107838;1261;60455;-76
2023/10/16 05:07:45;;;;;;;2.50;1.50;;;;;;;7.85;82.42;99818.02;107861;1260;59029;-76
2023/10/16 05:10:18;;;;;;;3.10;1.40;;;;;;;7.86;82.51;99824.71;107812;1260;73267;-76
2023/10/16 05:16:30;;;;;;;4.20;1.70;;;;;;;7.88;82.61;99839.89;107813;1260;71078;-76
2023/10/16 05:18:43;;;;;;;4.50;2.10;;;;;;;7.90;82.63;99826.88;107839;1257;60436;-76
2023/10/16 06:14:53;;;;;;;5.10;2.30;;;;;;;8.36;83.10;99824.52;107796;1257;61692;-76
2023/10/16 06:17:23;;;;;;;4.90;2.80;;;;;;;8.43;83.19;99824.13;107927;1258;60450;-76
2023/10/16 06:20:19;;;;;;;4.50;2.50;;;;;;;8.51;83.13;99831.50;107757;1258;74923;-76
2023/10/16 06:22:53;;;;;;;7.00;3.00;;;;;;;8.55;83.20;99839.40;107985;1256;75175;-76
2023/10/16 06:25:47;;;;;;;5.30;3.00;;;;;;;8.57;83.06;99838.29;107916;1257;71505;-76
2023/10/16 06:28:47;;;;;;;6.50;3.50;;;;;;;8.61;83.12;99845.53;107864;1260;61614;-77
2023/10/16 06:31:49;;;;;;;5.90;3.20;;;;;;;8.64;83.00;99854.98;107862;1257;60313;-76
2023/10/16 06:34:36;;;;;;;6.30;3.40;;;;;;;8.64;82.81;99865.93;107983;1260;73038;-77
2023/10/16 06:37:31;;;;;;;8.50;3.40;;;;;;;8.65;82.79;99865.42;108031;1254;73128;-76
2023/10/16 06:40:17;;;;;;;8.40;4.30;;;;;;;8.66;82.49;99872.40;108155;1254;72680;-76
2023/10/16 06:43:09;;;;;;;8.00;4.40;;;;;;;8.66;82.21;99867.08;108124;1254;60290;-76
2023/10/16 06:45:58;;;;;;;7.70;4.30;;;;;;;8.70;81.99;99866.23;108183;1254;60296;-76
2023/10/16 06:48:43;;;;;;;9.60;5.00;;;;;;;8.73;81.73;99864.06;108116;1254;73827;-76
2023/10/16 06:51:33;;;;;;;6.40;4.20;;;;;;;8.78;81.62;99857.89;108090;1254;71717;-77
2023/10/16 06:54:21;;;;;;;8.30;4.50;;;;;;;8.86;81.43;99856.37;108077;1259;70911;-77
2023/10/16 06:57:12;;;;;;;9.80;4.70;;;;;;;8.94;81.27;99854.27;108081;1254;63832;-77
2023/10/16 07:00:08;;;;;;;7.90;4.80;;;;;;;9.01;80.99;99849.42;108146;1254;60451;-77
2023/10/16 07:02:56;;;;;;;8.90;5.20;;;;;;;9.04;80.58;99852.95;108109;1254;72580;-78
2023/10/16 07:05:44;;;;;;;9.00;5.30;;;;;;;9.06;80.24;99851.20;108079;1254;71455;-77
2023/10/16 07:08:26;;;;;;;8.90;5.20;;;;;;;9.07;79.62;99845.86;108149;1254;72681;-76
2023/10/16 07:11:18;;;;;;;8.40;5.10;;;;;;;9.06;79.10;99840.71;108074;1256;60506;-77
2023/10/16 07:14:12;;;;;;;11.00;5.70;;;;;;;9.08;78.76;99843.58;108101;1254;60335;-77
2023/10/16 07:16:54;;;;;;;9.60;5.70;;;;;;;9.08;78.28;99845.98;108149;1254;71503;-78
2023/10/16 07:19:28;;;;;;;9.70;5.10;;;;;;;9.08;77.98;99850.25;108167;1254;72737;-77
2023/10/16 07:22:26;;;;;;;8.90;4.70;;;;;;;9.09;77.72;99851.53;108152;1254;71553;-78
2023/10/16 07:25:24;;;;;;;9.50;5.20;;;;;;;9.10;77.45;99849.23;108089;1254;60800;-78
2023/10/16 07:28:21;;;;;;;10.50;5.70;;;;;;;9.14;77.08;99846.10;108203;1254;60345;-78
2023/10/16 07:31:05;;;;;;;9.50;6.00;;;;;;;9.18;77.01;99847.70;108176;1254;72652;-77
2023/10/16 07:33:59;;;;;;;10.00;5.30;;;;;;;9.22;76.71;99850.27;108100;1254;74614;-77
2023/10/16 07:37:08;;;;;;;11.40;5.60;;;;;;;9.25;76.45;99851.60;107983;1255;73652;-77
2023/10/16 07:39:36;;;;;;;10.50;5.30;;;;;;;9.29;76.17;99851.87;108098;1254;61596;-77
2023/10/16 07:42:03;;;;;;;8.10;4.70;;;;;;;9.32;76.01;99847.88;108104;1254;60270;-78
2023/10/16 07:44:35;;;;;;;7.00;4.30;;;;;;;9.36;75.87;99852.13;108127;1254;73913;-77
2023/10/16 07:47:06;;;;;;;9.90;5.00;;;;;;;9.36;75.47;99853.90;108119;1254;71393;-78
2023/10/16 07:49:33;;;;;;;8.10;4.60;;;;;;;9.39;75.42;99855.02;108074;1254;72770;-78
2023/10/16 07:52:05;;;;;;;11.30;4.90;;;;;;;9.44;75.02;99852.45;108087;1260;61826;-78
2023/10/16 07:54:36;;;;;;;12.00;5.10;;;;;;;9.50;74.91;99850.39;108071;1259;60432;-78
2023/10/16 07:57:04;;;;;;;11.10;5.00;;;;;;;9.55;74.73;99849.52;108104;1254;73495;-78
2023/10/16 07:59:35;;;;;;;10.50;4.80;;;;;;;9.58;74.60;99850.38;108080;1254;72976;-78
2023/10/16 08:02:08;;;;;;;13.80;5.10;;;;;;;9.64;74.47;99848.94;108072;1254;71708;-77
2023/10/16 08:04:36;;;;;;;7.90;4.90;;;;;;;9.74;74.48;99852.18;108127;1254;60387;-78
2023/10/16 08:07:04;;;;;;;9.30;5.10;;;;;;;9.84;74.07;99856.81;108165;1254;60151;-78
2023/10/16 08:12:18;;;;;;;11.20;4.90;;;;;;;9.97;73.71;99847.83;108101;1259;70934;-79
2023/10/16 08:14:46;;;;;;;13.40;4.90;;;;;;;10.08;73.25;99850.57;108148;1254;71649;-78
2023/10/16 08:17:15;;;;;;;6.30;3.90;;;;;;;10.13;72.65;99852.80;108170;1257;60776;-78
2023/10/16 08:19:44;;;;;;;8.60;4.10;;;;;;;10.12;72.27;99858.62;108154;1257;59110;-78
2023/10/16 08:22:13;;;;;;;10.20;4.60;;;;;;;10.12;71.64;99856.77;108159;1254;74146;-79
2023/10/16 08:24:44;;;;;;;8.80;4.40;;;;;;;10.13;71.37;99854.19;108156;1254;71584;-79
2023/10/16 08:27:31;;;;;;;9.70;4.40;;;;;;;10.19;71.41;99854.71;108144;1257;72760;-79
2023/10/16 08:30:17;;;;;;;8.40;4.00;;;;;;;10.28;71.08;99852.10;108119;1254;60313;-79
2023/10/16 08:35:22;;;;;;;9.60;4.80;;;;;;;10.34;70.76;99852.94;108164;1254;73802;-79
2023/10/16 08:37:59;;;;;;;10.30;4.50;;;;;;;10.38;70.23;99855.54;108200;1257;72460;-79
2023/10/16 08:40:34;;;;;;;7.60;3.90;;;;;;;10.40;70.06;99854.20;108128;1254;71852;-78
2023/10/16 08:43:29;;;;;;;11.00;4.00;;;;;;;10.50;69.99;99856.73;107932;1263;60862;-78
2023/10/16 08:45:56;;;;;;;7.70;4.20;;;;;;;10.58;69.72;99857.98;107917;1256;60326;-80
2023/10/16 08:48:25;;;;;;;10.70;4.40;;;;;;;10.63;69.43;99858.80;107938;1258;74107;-78
2023/10/16 08:50:57;;;;;;;8.80;4.30;;;;;;;10.66;68.96;99862.42;107749;1257;71402;-79
2023/10/16 08:53:31;;;;;;;11.40;4.30;;;;;;;10.67;68.26;99860.50;107924;1257;72953;-78
2023/10/16 08:56:09;;;;;;;7.80;4.30;;;;;;;10.68;67.79;99863.91;107907;1257;61769;-79
2023/10/16 08:58:39;;;;;;;10.80;4.40;;;;;;;10.67;67.21;99859.11;107838;1256;60229;-79
2023/10/16 09:01:07;;;;;;;12.80;4.20;;;;;;;10.67;67.14;99851.90;107967;1257;74294;-78
2023/10/16 09:03:42;;;;;;;9.50;4.40;;;;;;;10.67;66.60;99850.50;107915;1260;72137;-79
2023/10/16 09:06:13;;;;;;;9.00;3.90;;;;;;;10.66;66.36;99844.64;107980;1257;71214;-79
2023/10/16 09:08:41;;;;;;;10.50;4.10;;;;;;;10.65;66.02;99843.67;107989;1257;60460;-79
2023/10/16 09:11:10;;;;;;;8.90;3.70;;;;;;;10.70;66.13;99848.30;107927;1256;60334;-79
2023/10/16 09:13:38;;;;;;;7.60;3.80;;;;;;;10.78;65.16;99847.19;107934;1257;72169;-79
2023/10/16 09:16:14;;;;;;;7.80;3.90;;;;;;;10.79;64.07;99844.30;108081;1254;71463;-80
2023/10/16 09:18:45;;;;;;;7.90;3.70;;;;;;;10.73;63.14;99837.60;108116;1254;71406;-78
2023/10/16 09:21:13;;;;;;;12.00;3.80;;;;;;;10.70;62.48;99834.04;108138;1254;59952;-80
2023/10/16 09:23:42;;;;;;;9.40;4.10;;;;;;;10.71;62.12;99828.70;108127;1254;60225;-78
2023/10/16 09:26:10;;;;;;;8.60;3.60;;;;;;;10.77;62.09;99827.38;107944;1253;76089;-79
2023/10/16 09:28:38;;;;;;;7.10;3.40;;;;;;;10.85;61.38;99820.77;107960;1254;72783;-80
2023/10/16 09:31:08;;;;;;;8.60;3.50;;;;;;;10.92;60.82;99818.41;108124;1257;73893;-79
2023/10/16 09:33:39;;;;;;;8.00;3.40;;;;;;;11.01;60.24;99819.80;107951;1254;59309;-80
2023/10/16 09:36:17;;;;;;;8.80;3.50;;;;;;;11.10;59.50;99826.59;108196;1253;60037;-79
2023/10/16 09:38:53;;;;;;;9.20;3.20;;;;;;;11.15;58.47;99825.33;108158;1253;74154;-78
2023/10/16 09:41:38;;;;;;;7.30;3.30;;;;;;;11.23;58.25;99820.89;108116;1254;73205;-80
2023/10/16 09:44:31;;;;;;;8.70;3.00;;;;;;;11.37;57.89;99825.05;108110;1253;73856;-80
2023/10/16 09:46:59;;;;;;;8.60;3.30;;;;;;;11.45;56.08;99826.91;107966;1257;60618;-78
2023/10/16 09:49:30;;;;;;;5.10;2.90;;;;;;;11.47;55.71;99819.56;108129;1254;62237;-78
2023/10/16 09:51:58;;;;;;;8.70;3.20;;;;;;;11.56;55.92;99823.02;108140;1254;73855;-78
2023/10/16 09:54:29;;;;;;;9.00;2.70;;;;;;;11.60;55.03;99814.80;108142;1254;72055;-78
2023/10/16 09:56:59;;;;;;;9.10;2.80;;;;;;;11.58;54.81;99818.02;108110;1254;71412;-79
2023/10/16 09:59:37;;;;;;;8.80;2.90;;;;;;;11.54;55.26;99811.64;108088;1254;60575;-79
2023/10/16 10:02:09;;;;;;;7.10;2.50;;;;;;;11.51;55.27;99812.95;108087;1254;60302;-79
2023/10/16 10:04:43;;;;;;;8.90;2.60;;;;;;;11.47;55.25;99815.06;108052;1254;76068;-79
2023/10/16 10:07:34;;;;;;;6.10;2.30;;;;;;;11.51;54.92;99822.95;108041;1254;72933;-79
2023/10/16 10:11:04;;;;;;;7.30;2.50;;;;;;;11.57;53.52;99830.93;108046;1254;71474;-79
2023/10/16 10:12:52;;;;;;;8.70;2.40;;;;;;;11.59;52.26;99822.73;108115;1254;60433;-79
2023/10/16 10:15:26;;;;;;;8.30;2.20;;;;;;;11.65;51.73;99817.86;108044;1257;60494;-78
2023/10/16 10:17:55;;;;;;;7.50;2.60;;;;;;;11.70;51.43;99823.86;108110;1256;72688;-79
2023/10/16 10:20:31;;;;;;;6.20;2.20;;;;;;;11.72;51.19;99826.78;108036;1253;74187;-78
2023/10/16 10:23:06;;;;;;;6.80;2.70;;;;;;;11.71;50.80;99829.83;108159;1254;72702;-79
2023/10/16 10:25:35;;;;;;;7.40;2.40;;;;;;;11.68;50.51;99833.14;108149;1253;60347;-79
2023/10/16 10:28:28;;;;;;;7.70;2.20;;;;;;;11.64;50.45;99822.73;108142;1253;60338;-79
2023/10/16 10:30:55;;;;;;;5.80;2.00;;;;;;;11.65;51.07;99824.38;108144;1253;74858;-79
2023/10/16 10:33:42;;;;;;;8.10;2.10;;;;;;;11.70;51.44;99823.52;108144;1253;71890;-78
2023/10/16 10:36:43;;;;;;;6.90;2.30;;;;;;;11.77;51.45;99827.91;108128;1254;71441;-79
2023/10/16 10:39:29;;;;;;;5.30;1.90;;;;;;;11.77;51.31;99824.32;107955;1255;60290;-78
2023/10/16 10:42:05;;;;;;;7.70;2.20;;;;;;;11.71;51.11;99816.51;108127;1254;60309;-78
2023/10/16 10:44:46;;;;;;;7.20;2.00;;;;;;;11.67;51.45;99823.83;108118;1254;74064;-78
2023/10/16 10:47:32;;;;;;;7.00;1.80;;;;;;;11.59;50.77;99826.73;108168;1254;72914;-78
2023/10/16 10:50:11;;;;;;;6.30;2.00;;;;;;;11.48;50.89;99831.86;108093;1254;71434;-77
2023/10/16 10:52:40;;;;;;;7.00;2.10;;;;;;;11.45;50.82;99836.91;108066;1254;60348;-78
2023/10/16 10:55:29;;;;;;;6.20;2.20;;;;;;;11.42;51.13;99830.90;108066;1254;60335;-78
2023/10/16 10:57:58;;;;;;;7.00;2.10;;;;;;;11.40;51.38;99835.50;108017;1256;73912;-79
2023/10/16 11:05:31;;;;;;;6.40;1.80;;;;;;;11.57;51.10;99829.05;108062;1254;62276;-78
2023/10/16 11:10:44;;;;;;;4.70;1.70;;;;;;;11.85;49.07;99823.24;108084;1253;73920;-77
2023/10/16 11:13:14;;;;;;;5.80;1.70;;;;;;;11.92;48.72;99822.12;108158;1253;71476;-77
2023/10/16 11:15:46;;;;;;;5.10;1.60;;;;;;;11.90;48.98;99823.15;108146;1253;74980;-78
2023/10/16 11:18:18;;;;;;;6.40;1.80;;;;;;;11.88;49.56;99825.27;108126;1255;62429;-79
2023/10/16 11:20:54;;;;;;;7.20;1.80;;;;;;;11.86;49.39;99827.10;108065;1255;60226;-79
2023/10/16 11:23:25;;;;;;;5.30;1.70;;;;;;;11.82;49.09;99823.84;108119;1253;73881;-79
2023/10/16 11:26:00;;;;;;;7.70;2.00;;;;;;;11.81;49.05;99832.09;108143;1253;70863;-79
2023/10/16 11:28:31;;;;;;;5.80;1.90;;;;;;;11.84;48.94;99836.30;108058;1257;70544;-79
2023/10/16 11:31:00;;;;;;;5.20;1.70;;;;;;;11.93;49.17;99834.84;107945;1256;60345;-80
2023/10/16 11:33:34;;;;;;;8.40;2.10;;;;;;;12.03;48.85;99841.54;108142;1254;62395;-80
2023/10/16 11:36:03;;;;;;;5.90;1.60;;;;;;;12.05;48.64;99843.30;108184;1253;73935;-79
2023/10/16 11:38:35;;;;;;;4.80;1.80;;;;;;;11.95;48.39;99834.27;108074;1253;72439;-79
2023/10/16 11:41:11;;;;;;;6.80;2.00;;;;;;;11.86;48.75;99835.71;108165;1253;72703;-79
2023/10/16 11:43:47;;;;;;;7.30;2.00;;;;;;;11.79;48.96;99841.04;108104;1253;60338;-78
2023/10/16 11:49:22;;;;;;;5.20;1.60;;;;;;;11.68;49.54;99843.14;108196;1253;74755;-77
2023/10/16 11:51:51;;;;;;;6.10;1.90;;;;;;;11.60;50.17;99845.71;108236;1253;72899;-78
2023/10/16 11:54:24;;;;;;;5.00;1.40;;;;;;;11.56;49.92;99855.17;108171;1254;71778;-78
2023/10/16 11:56:55;;;;;;;4.40;1.70;;;;;;;11.45;49.44;99856.48;107990;1253;60225;-78
2023/10/16 11:59:28;;;;;;;5.60;1.70;;;;;;;11.34;50.07;99870.46;108042;1253;62293;-78
2023/10/16 12:02:11;;;;;;;5.10;1.80;;;;;;;11.29;50.30;99864.30;108300;1253;73910;-81
2023/10/16 12:04:42;;;;;;;5.70;1.90;;;;;;;11.25;50.84;99864.23;108153;1253;71587;-80
2023/10/16 12:07:14;;;;;;;4.80;1.70;;;;;;;11.17;50.74;99873.84;108177;1253;71451;-80
2023/10/16 12:09:47;;;;;;;5.70;1.90;;;;;;;11.11;51.21;99869.93;108131;1259;60395;-80
2023/10/16 12:12:24;;;;;;;4.30;1.60;;;;;;;11.09;51.71;99867.33;108159;1253;60318;-80
2023/10/16 12:14:53;;;;;;;4.90;1.80;;;;;;;11.10;51.98;99876.55;108181;1253;72613;-77
2023/10/16 12:17:21;;;;;;;5.00;1.70;;;;;;;11.09;52.25;99874.27;108076;1254;72718;-78
2023/10/16 12:19:52;;;;;;;4.70;1.40;;;;;;;11.07;52.16;99880.21;107996;1256;73021;-78
2023/10/16 12:22:20;;;;;;;6.20;1.60;;;;;;;11.04;51.86;99879.80;108028;1255;61326;-78
2023/10/16 12:24:51;;;;;;;5.30;1.70;;;;;;;11.04;52.10;99889.48;108070;1254;59764;-78
2023/10/16 12:27:21;;;;;;;6.00;1.70;;;;;;;11.09;52.58;99885.70;108061;1254;72750;-77
2023/10/16 12:29:49;;;;;;;3.40;1.30;;;;;;;11.12;52.87;99886.66;108003;1254;72857;-78
2023/10/16 12:32:16;;;;;;;3.90;1.40;;;;;;;11.09;52.44;99884.39;108078;1254;74876;-78
2023/10/16 12:34:44;;;;;;;7.20;1.80;;;;;;;11.01;52.44;99887.46;107999;1254;60375;-77
2023/10/16 12:37:12;;;;;;;4.90;1.90;;;;;;;10.96;52.37;99893.27;108170;1254;60434;-78
2023/10/16 12:39:47;;;;;;;3.60;1.40;;;;;;;10.96;52.72;99894.98;107988;1255;76034;-81
2023/10/16 12:42:18;;;;;;;2.30;1.10;;;;;;;10.94;52.44;99896.69;108017;1256;75316;-79
2023/10/16 12:44:46;;;;;;;4.10;1.50;;;;;;;10.93;52.99;99898.51;108104;1257;72804;-79
2023/10/16 12:47:14;;;;;;;4.60;1.60;;;;;;;10.89;52.62;99900.52;108141;1253;60528;-78
2023/10/16 12:50:04;;;;;;;3.50;1.30;;;;;;;10.83;52.86;99912.30;108117;1253;60188;-77
2023/10/16 12:52:32;;;;;;;3.00;1.30;;;;;;;10.78;53.38;99917.77;108195;1253;72130;-79
2023/10/16 12:55:02;;;;;;;6.30;1.50;;;;;;;10.72;53.38;99918.27;108170;1253;73750;-77
2023/10/16 12:57:29;;;;;;;4.80;1.50;;;;;;;10.69;53.96;99920.30;108160;1254;72313;-78
2023/10/16 12:59:57;;;;;;;5.30;1.50;;;;;;;10.67;54.15;99923.36;108074;1254;61815;-77
2023/10/16 13:02:27;;;;;;;4.10;1.40;;;;;;;10.63;54.65;99930.11;108145;1253;60261;-77
2023/10/16 13:05:01;;;;;;;4.40;1.60;;;;;;;10.59;54.91;99942.15;108132;1253;74168;-78
2023/10/16 13:07:29;;;;;;;4.10;1.60;;;;;;;10.50;55.20;99937.67;108054;1254;71870;-78
2023/10/16 13:10:14;;;;;;;5.40;2.00;;;;;;;10.41;56.07;99940.96;108075;1253;71747;-78
2023/10/16 13:12:47;;;;;;;4.40;1.90;;;;;;;10.33;56.51;99949.63;108204;1253;61674;-78
2023/10/16 13:15:32;;;;;;;4.00;1.80;;;;;;;10.27;57.02;99948.46;108027;1257;60385;-78
2023/10/16 13:18:15;;;;;;;3.20;1.60;;;;;;;10.22;57.26;99952.34;108011;1256;75926;-79
2023/10/16 13:21:12;;;;;;;5.00;1.70;;;;;;;10.20;57.39;99958.10;107990;1256;72913;-78
2023/10/16 13:23:55;;;;;;;5.40;2.00;;;;;;;10.20;57.65;99955.33;108138;1254;71165;-78
2023/10/16 13:26:53;;;;;;;5.10;2.10;;;;;;;10.15;57.95;99965.95;100418;1256;10191081;-78
2023/10/16 13:29:43;;;;;;;4.30;1.90;;;;;;;10.09;58.61;99962.06;108045;1255;76100;-79
2023/10/16 13:32:25;;;;;;;5.00;2.10;;;;;;;9.96;59.09;99971.23;108140;1256;74720;-78
2023/10/16 13:35:17;;;;;;;4.30;2.10;;;;;;;9.86;59.33;99970.17;108072;1256;72706;-78
2023/10/16 13:38:09;;;;;;;9.90;5.30;;;;;;;9.80;59.49;99977.69;108121;1254;60451;-79
2023/10/16 13:40:46;;;;;;;6.20;4.00;;;;;;;9.75;59.22;99985.57;108087;1254;60302;-79
2023/10/16 13:43:35;;;;;;;4.70;3.10;;;;;;;9.74;59.43;99979.77;108116;1254;73923;-79
2023/10/16 13:46:26;;;;;;;3.70;2.30;;;;;;;9.74;59.41;99983.77;108150;1254;71775;-78